Warrior — NA27 — position and weather

sailwx.info

Track history (hours):
 
Tides and Currents Weather Stations Pressure Air Temp Water Temp Dewpoint Dewpoint Depression Visibility Wind Speed Wind Dir Waves Ship Positions

Warrior

Last reported at 2018-Jun-21 04:30 UTC. Time now 2018-Jun-23 10:23 UTC.
Position N 39°23' W 076°06'.

Length 14 m.

Type: Sailing vessel. MMSI: 369970067.

Date/timePositionNaut miles runAvg speedWind from/ knotsBaromVisibWave heightAir tempDewpointWater temp
2018-Jun-21 04:30N 39°23' W 076°06'3 5.5
2018-Jun-21 04:00N 39°24' W 076°02'3 5.0
2018-Jun-21 03:29N 39°26' W 076°00'3 5.4
2018-Jun-21 03:00N 39°28' W 075°58'6 8.0
2018-Jun-21 02:16N 39°32' W 075°52'2 8.8
2018-Jun-21 02:00N 39°32' W 075°49'4 8.9
2018-Jun-21 01:30N 39°33' W 075°43'4 8.8
2018-Jun-21 01:00N 39°33' W 075°38'4 7.7
2018-Jun-21 00:30N 39°33' W 075°33'3 6.8
2018-Jun-21 00:00N 39°30' W 075°33'4 7.2
2018-Jun-20 23:30N 39°26' W 075°32'4 7.9
2018-Jun-20 23:00N 39°23' W 075°29'4 8.0
2018-Jun-20 22:30N 39°20' W 075°25'4 8.2
2018-Jun-20 22:00N 39°17' W 075°22'4 8.4
2018-Jun-20 21:30N 39°14' W 075°18'4 8.6
2018-Jun-20 20:59N 39°10' W 075°16'4 7.9
2018-Jun-20 20:28N 39°07' W 075°12'10 8.5
2018-Jun-20 19:17N 38°58' W 075°07'4 8.8
2018-Jun-20 18:51N 38°55' W 075°05'6 8.3
2018-Jun-20 18:10N 38°50' W 075°01'64 5.9
2018-Jun-20 07:13N 39°37' W 074°05'2 7.7
2018-Jun-20 06:57N 39°38' W 074°03'60 7.3
2018-Jun-19 22:45N 40°38' W 074°03'2 8.1
2018-Jun-19 22:30N 40°40' W 074°03'2 4.5
2018-Jun-19 21:58N 40°43' W 074°02'0 0.0
2018-Jun-19 21:28N 40°43' W 074°02'0 0.0
2018-Jun-19 20:58N 40°43' W 074°02'0 0.0
2018-Jun-19 20:30N 40°43' W 074°02'74 4.0
2018-Jun-19 01:50N 41°09' W 072°31'  
2018-Jun-11 16:36N 38°51' W 076°26'0 5.1
2018-Jun-11 16:30N 38°51' W 076°26'3 5.7
2018-Jun-11 16:00N 38°54' W 076°25'3 3.3
2018-Jun-11 15:04N 38°57' W 076°26'1 7.6
2018-Jun-11 15:00N 38°57' W 076°27'  
Track history (hours):
 
Tides and Currents Weather Stations Pressure Air Temp Water Temp Dewpoint Dewpoint Depression Visibility Wind Speed Wind Dir Waves Ship Positions

Warrior

Last reported at 2018-Jun-21 04:30 UTC. Time now 2018-Jun-23 10:23 UTC.
Position N 39°23' W 076°06'.

Length 14 m.

Type: Sailing vessel. MMSI: 369970067.

Date/timePositionNaut miles runAvg speedWind from/ knotsBaromVisibWave heightAir tempDewpointWater temp
2018-Jun-21 04:30N 39°23' W 076°06'3 5.5
2018-Jun-21 04:00N 39°24' W 076°02'3 5.0
2018-Jun-21 03:29N 39°26' W 076°00'3 5.4
2018-Jun-21 03:00N 39°28' W 075°58'6 8.0
2018-Jun-21 02:16N 39°32' W 075°52'2 8.8
2018-Jun-21 02:00N 39°32' W 075°49'4 8.9
2018-Jun-21 01:30N 39°33' W 075°43'4 8.8
2018-Jun-21 01:00N 39°33' W 075°38'4 7.7
2018-Jun-21 00:30N 39°33' W 075°33'3 6.8
2018-Jun-21 00:00N 39°30' W 075°33'4 7.2
2018-Jun-20 23:30N 39°26' W 075°32'4 7.9
2018-Jun-20 23:00N 39°23' W 075°29'4 8.0
2018-Jun-20 22:30N 39°20' W 075°25'4 8.2
2018-Jun-20 22:00N 39°17' W 075°22'4 8.4
2018-Jun-20 21:30N 39°14' W 075°18'4 8.6
2018-Jun-20 20:59N 39°10' W 075°16'4 7.9
2018-Jun-20 20:28N 39°07' W 075°12'10 8.5
2018-Jun-20 19:17N 38°58' W 075°07'4 8.8
2018-Jun-20 18:51N 38°55' W 075°05'6 8.3
2018-Jun-20 18:10N 38°50' W 075°01'64 5.9
2018-Jun-20 07:13N 39°37' W 074°05'2 7.7
2018-Jun-20 06:57N 39°38' W 074°03'60 7.3
2018-Jun-19 22:45N 40°38' W 074°03'2 8.1
2018-Jun-19 22:30N 40°40' W 074°03'2 4.5
2018-Jun-19 21:58N 40°43' W 074°02'0 0.0
2018-Jun-19 21:28N 40°43' W 074°02'0 0.0
2018-Jun-19 20:58N 40°43' W 074°02'0 0.0
2018-Jun-19 20:30N 40°43' W 074°02'74 4.0
2018-Jun-19 01:50N 41°09' W 072°31'  
2018-Jun-11 16:36N 38°51' W 076°26'0 5.1
2018-Jun-11 16:30N 38°51' W 076°26'3 5.7
2018-Jun-11 16:00N 38°54' W 076°25'3 3.3
2018-Jun-11 15:04N 38°57' W 076°26'1 7.6
2018-Jun-11 15:00N 38°57' W 076°27'  

Dump ship's entire track history